Time;durP1;ratioP1;P1;durP2;ratioP2;P2;SDS_P1;SDS_P2;PMS_P1;PMS_P2;Temp;Humidity;BMP_temperature;BMP_pressure;BME280_temperature;BME280_humidity;BME280_pressure;Samples;Min_cycle;Max_cycle;Signal;HPM_P1;HPM_P2
2022/01/19 00:00:57;;;;;;;73.47;39.33;;;4.90;99.90;;;;;;4960292;28;20077;-77
2022/01/19 00:03:24;;;;;;;74.90;40.85;;;4.80;99.90;;;;;;4944630;28;20562;-77
2022/01/19 00:05:49;;;;;;;69.82;40.75;;;4.90;99.90;;;;;;4944598;28;20047;-77
2022/01/19 00:08:19;;;;;;;69.60;39.03;;;4.90;99.90;;;;;;4943521;28;20153;-77
2022/01/19 00:10:46;;;;;;;72.15;39.15;;;4.90;99.90;;;;;;4976952;28;20042;-77
2022/01/19 00:13:12;;;;;;;67.75;37.17;;;4.90;99.90;;;;;;4996101;28;20050;-77
2022/01/19 00:15:39;;;;;;;67.70;37.53;;;4.80;99.90;;;;;;4963201;28;20062;-77
2022/01/19 00:18:05;;;;;;;67.75;37.92;;;4.90;99.90;;;;;;4979160;28;20049;-78
2022/01/19 00:20:32;;;;;;;71.38;38.20;;;4.90;99.90;;;;;;4979387;28;20483;-77
2022/01/19 00:23:01;;;;;;;73.20;38.20;;;4.90;99.90;;;;;;4947246;28;20046;-80
2022/01/19 00:25:27;;;;;;;78.45;38.63;;;4.90;99.90;;;;;;4963391;28;20042;-77
2022/01/19 00:27:53;;;;;;;68.63;38.60;;;4.80;99.90;;;;;;4963424;28;20046;-77
2022/01/19 00:30:19;;;;;;;75.35;38.53;;;4.90;99.90;;;;;;4963094;28;20132;-77
2022/01/19 00:32:45;;;;;;;69.85;38.28;;;4.90;99.90;;;;;;4963429;28;20054;-77
2022/01/19 00:35:12;;;;;;;76.10;39.00;;;4.90;99.90;;;;;;4979122;28;20045;-77
2022/01/19 00:37:39;;;;;;;65.30;37.45;;;4.80;99.90;;;;;;4963016;28;20053;-77
2022/01/19 00:40:07;;;;;;;71.97;38.85;;;4.90;99.90;;;;;;4979423;28;20399;-77
2022/01/19 00:42:33;;;;;;;72.75;39.90;;;4.80;99.90;;;;;;4979294;28;20054;-77
2022/01/19 00:44:58;;;;;;;79.70;39.35;;;4.80;99.90;;;;;;4979112;28;20049;-77
2022/01/19 00:47:24;;;;;;;68.38;35.92;;;4.80;99.90;;;;;;4996411;28;20098;-77
2022/01/19 00:49:50;;;;;;;72.22;37.75;;;4.90;99.90;;;;;;4949273;28;20380;-77
2022/01/19 00:52:16;;;;;;;76.65;38.90;;;4.80;99.90;;;;;;4959878;28;20051;-77
2022/01/19 00:54:42;;;;;;;77.15;40.30;;;4.80;99.90;;;;;;4943372;28;20562;-77
2022/01/19 00:57:09;;;;;;;67.72;36.20;;;4.70;99.90;;;;;;4943507;28;20050;-78
2022/01/19 00:59:35;;;;;;;75.07;35.80;;;4.80;99.90;;;;;;4959623;28;20051;-77
2022/01/19 01:02:02;;;;;;;67.18;35.90;;;4.80;99.90;;;;;;4943824;28;20055;-77
2022/01/19 01:04:28;;;;;;;71.55;38.10;;;4.80;99.90;;;;;;4959704;28;20129;-77
2022/01/19 01:06:54;;;;;;;71.93;37.45;;;4.80;99.90;;;;;;4975623;28;20129;-77
2022/01/19 01:09:20;;;;;;;73.75;38.55;;;4.80;99.90;;;;;;4943056;28;20053;-78
2022/01/19 01:11:57;;;;;;;69.82;39.17;;;4.70;99.90;;;;;;4978406;28;20082;-77
2022/01/19 01:18:17;;;;;;;66.45;36.63;;;4.70;99.90;;;;;;4959129;28;20054;-78
2022/01/19 01:19:59;;;;;;;54.35;28.98;;;4.70;99.90;;;;;;4959366;28;20054;-77
2022/01/19 01:22:25;;;;;;;71.30;40.65;;;4.70;99.90;;;;;;4977438;28;20051;-78
2022/01/19 01:24:51;;;;;;;75.55;38.55;;;4.70;99.90;;;;;;4962327;28;20094;-77
2022/01/19 01:27:17;;;;;;;66.63;36.88;;;4.70;99.90;;;;;;4961979;28;20077;-77
2022/01/19 01:29:42;;;;;;;72.38;40.22;;;4.70;99.90;;;;;;4962052;28;20065;-77
2022/01/19 01:32:08;;;;;;;68.53;37.95;;;4.60;99.90;;;;;;4961787;28;20128;-77
2022/01/19 01:34:34;;;;;;;63.92;36.25;;;4.60;99.90;;;;;;4977951;28;20486;-77
2022/01/19 01:37:00;;;;;;;68.85;36.08;;;4.60;99.90;;;;;;4946337;28;20061;-77
2022/01/19 01:39:26;;;;;;;66.95;37.60;;;4.60;99.90;;;;;;4960774;28;20085;-76
2022/01/19 01:41:51;;;;;;;71.35;37.70;;;4.60;99.90;;;;;;4977858;28;20061;-77
2022/01/19 01:44:17;;;;;;;76.78;43.38;;;4.60;99.90;;;;;;4978031;28;20084;-77
2022/01/19 01:46:48;;;;;;;74.28;41.55;;;4.60;99.90;;;;;;4945617;28;20074;-77
2022/01/19 01:49:21;;;;;;;73.57;47.50;;;4.50;99.90;;;;;;4978229;28;20082;-77
2022/01/19 01:54:31;;;;;;;82.75;47.10;;;4.50;99.90;;;;;;4964165;28;20402;-77
2022/01/19 01:56:57;;;;;;;78.35;47.22;;;4.50;99.90;;;;;;4945462;28;20050;-78
2022/01/19 01:59:23;;;;;;;77.43;44.78;;;4.50;99.90;;;;;;4961091;28;20043;-78
2022/01/19 02:01:48;;;;;;;89.43;48.80;;;4.50;99.90;;;;;;4944989;28;20074;-78
2022/01/19 02:04:14;;;;;;;80.47;45.13;;;4.50;99.90;;;;;;4960257;28;20173;-79
2022/01/19 02:07:03;;;;;;;83.05;44.63;;;4.40;99.90;;;;;;4941416;28;20134;-77
2022/01/19 02:09:34;;;;;;;70.32;39.33;;;4.40;99.90;;;;;;4957496;28;20046;-78
2022/01/19 02:23:22;;;;;;;;;;;4.40;99.90;;;;;;4958466;28;20495;-78
2022/01/19 02:26:00;;;;;;;82.88;44.67;;;4.40;99.90;;;;;;4956321;28;19945;-78
2022/01/19 02:41:42;;;;;;;96.45;46.08;;;4.20;99.90;;;;;;4949823;28;20046;-78
2022/01/19 02:44:12;;;;;;;102.50;42.63;;;4.20;99.90;;;;;;4947439;28;20061;-78
2022/01/19 02:49:19;;;;;;;138.27;41.35;;;4.20;99.90;;;;;;4941658;28;20476;-80
2022/01/19 02:51:47;;;;;;;133.48;42.33;;;4.10;99.90;;;;;;4953768;28;20181;-78
2022/01/19 02:54:17;;;;;;;158.07;40.17;;;4.10;99.90;;;;;;4976392;28;20054;-78
2022/01/19 02:56:47;;;;;;;143.90;39.75;;;4.10;99.90;;;;;;4960788;28;20133;-77
2022/01/19 02:59:18;;;;;;;164.30;41.53;;;4.20;99.90;;;;;;4976681;28;20407;-78
2022/01/19 03:09:42;;;;;;;136.23;39.67;;;4.20;99.90;;;;;;4957062;28;20051;-77
2022/01/19 03:12:08;;;;;;;158.95;39.63;;;4.20;99.90;;;;;;4959399;28;20050;-79
2022/01/19 03:14:34;;;;;;;159.13;39.15;;;4.20;99.90;;;;;;4990835;28;20173;-81
2022/01/19 03:17:01;;;;;;;165.32;38.13;;;4.20;99.90;;;;;;4986969;28;20054;-78
2022/01/19 03:19:28;;;;;;;190.23;43.13;;;4.30;99.90;;;;;;4992567;28;20065;-80
2022/01/19 03:21:54;;;;;;;157.38;39.72;;;4.20;99.90;;;;;;4976582;28;20054;-77
2022/01/19 03:24:20;;;;;;;159.40;35.30;;;4.30;99.90;;;;;;4992305;28;20105;-78
2022/01/19 03:26:46;;;;;;;156.63;38.58;;;4.30;99.90;;;;;;4973921;28;20129;-82
2022/01/19 03:29:12;;;;;;;109.20;32.88;;;4.30;99.90;;;;;;4959822;28;20046;-78
2022/01/19 03:31:38;;;;;;;119.07;31.60;;;4.40;99.90;;;;;;4976063;28;20077;-78
2022/01/19 03:34:05;;;;;;;136.23;35.83;;;4.30;99.90;;;;;;4960300;28;20049;-78
2022/01/19 03:36:31;;;;;;;158.13;36.35;;;4.30;99.90;;;;;;4976366;28;20045;-76
2022/01/19 03:38:57;;;;;;;139.52;35.58;;;4.30;99.90;;;;;;4976389;28;20054;-78
2022/01/19 03:41:23;;;;;;;161.07;39.22;;;4.30;99.90;;;;;;4959672;28;20049;-78
2022/01/19 03:43:48;;;;;;;154.85;40.80;;;4.30;99.90;;;;;;4944440;28;20062;-77
2022/01/19 03:46:15;;;;;;;172.93;39.55;;;4.30;99.90;;;;;;4978070;28;20046;-77
2022/01/19 03:48:56;;;;;;;147.75;39.88;;;4.30;99.90;;;;;;4963865;28;20116;-78
2022/01/19 03:51:22;;;;;;;155.35;40.40;;;4.30;99.90;;;;;;4965959;28;20122;-82
2022/01/19 03:53:48;;;;;;;165.13;42.55;;;4.40;99.90;;;;;;4995929;28;20562;-78
2022/01/19 03:56:14;;;;;;;149.18;42.20;;;4.40;99.90;;;;;;4991072;28;20078;-78
2022/01/19 03:58:40;;;;;;;132.35;37.88;;;4.40;99.90;;;;;;4969042;28;20050;-77
2022/01/19 04:01:07;;;;;;;134.07;38.75;;;4.40;99.90;;;;;;4982233;28;20385;-78
2022/01/19 04:04:27;;;;;;;139.23;43.35;;;4.40;99.90;;;;;;4990864;28;20050;-78
2022/01/19 04:06:29;;;;;;;135.57;42.35;;;4.40;99.90;;;;;;4968290;28;20057;-78
2022/01/19 04:08:55;;;;;;;137.65;44.33;;;4.50;99.90;;;;;;4978839;28;20042;-79
2022/01/19 04:11:22;;;;;;;163.43;46.03;;;4.50;99.90;;;;;;4963446;28;20050;-77
2022/01/19 04:16:29;;;;;;;150.85;47.45;;;4.50;99.90;;;;;;4995704;28;20050;-78
2022/01/19 04:19:08;;;;;;;169.90;50.78;;;4.50;99.90;;;;;;4963572;28;20476;-79
2022/01/19 04:21:33;;;;;;;183.30;49.80;;;4.50;99.90;;;;;;4979445;28;20061;-78
2022/01/19 04:24:00;;;;;;;185.35;50.15;;;4.50;99.90;;;;;;4947204;28;20407;-78
2022/01/19 04:26:25;;;;;;;179.95;50.65;;;4.50;99.90;;;;;;4947504;28;20141;-81
2022/01/19 04:28:51;;;;;;;132.50;39.53;;;4.60;99.90;;;;;;4963505;28;20611;-77
2022/01/19 04:31:17;;;;;;;148.38;41.70;;;4.60;99.90;;;;;;4960242;28;20046;-78
2022/01/19 04:33:44;;;;;;;151.30;44.22;;;4.60;99.90;;;;;;4943915;28;20491;-78
2022/01/19 04:47:29;;;;;;;147.93;45.80;;;4.60;99.90;;;;;;4959583;28;20062;-78
2022/01/19 05:05:58;;;;;;;148.07;45.78;;;4.50;99.90;;;;;;4953563;29;20063;-78
2022/01/19 05:13:53;;;;;;;151.40;44.58;;;4.60;99.90;;;;;;4939243;29;20061;-79
2022/01/19 05:16:20;;;;;;;144.55;44.78;;;4.70;99.90;;;;;;4939375;29;20051;-78
2022/01/19 05:18:47;;;;;;;144.00;44.97;;;4.70;99.90;;;;;;4946211;28;20055;-78
2022/01/19 05:21:14;;;;;;;136.48;44.30;;;4.70;99.90;;;;;;4943269;28;20121;-78
2022/01/19 05:23:39;;;;;;;145.80;47.42;;;4.70;99.90;;;;;;4942633;28;20042;-78
2022/01/19 05:26:05;;;;;;;132.77;44.20;;;4.70;99.90;;;;;;4927165;28;20082;-78
2022/01/19 05:28:31;;;;;;;148.93;45.10;;;4.60;99.90;;;;;;4927084;28;20391;-78
2022/01/19 05:30:56;;;;;;;150.60;46.50;;;4.60;99.90;;;;;;4958862;28;20145;-78
2022/01/19 05:33:22;;;;;;;147.63;46.85;;;4.60;99.90;;;;;;4942756;28;20047;-77
2022/01/19 05:35:48;;;;;;;184.05;49.50;;;4.60;99.90;;;;;;4958498;28;20058;-78
2022/01/19 05:38:13;;;;;;;170.00;46.70;;;4.60;99.90;;;;;;4942766;28;20388;-78
2022/01/19 05:40:39;;;;;;;178.57;47.05;;;4.60;99.90;;;;;;4958701;28;20142;-78
2022/01/19 05:43:05;;;;;;;169.52;47.30;;;4.60;99.90;;;;;;4958676;28;20090;-78
2022/01/19 05:45:31;;;;;;;175.85;47.50;;;4.60;99.90;;;;;;4942690;28;20061;-78
2022/01/19 05:47:57;;;;;;;162.50;46.75;;;4.60;99.90;;;;;;4942495;28;20054;-78
2022/01/19 05:50:24;;;;;;;162.73;45.35;;;4.60;99.90;;;;;;4957877;28;20082;-78
2022/01/19 05:52:50;;;;;;;163.68;45.08;;;4.50;99.90;;;;;;4942523;28;20061;-78
2022/01/19 05:55:16;;;;;;;152.27;45.17;;;4.50;99.90;;;;;;4942380;28;20047;-78
2022/01/19 05:57:42;;;;;;;157.88;43.78;;;4.50;99.90;;;;;;4958321;28;20050;-78
2022/01/19 06:00:08;;;;;;;163.15;44.08;;;4.40;99.90;;;;;;4926799;28;20046;-78
2022/01/19 06:02:35;;;;;;;160.40;45.42;;;4.40;99.90;;;;;;4958465;28;20138;-78
2022/01/19 06:05:01;;;;;;;161.90;45.10;;;4.50;99.90;;;;;;4957919;28;20058;-78
2022/01/19 06:07:29;;;;;;;156.02;44.08;;;4.40;99.90;;;;;;4942124;28;20058;-77
2022/01/19 06:10:06;;;;;;;158.32;44.28;;;4.40;99.90;;;;;;4926418;28;20050;-78
2022/01/19 06:12:32;;;;;;;143.23;41.83;;;4.40;99.90;;;;;;4927892;28;20043;-77
2022/01/19 06:14:59;;;;;;;152.13;43.10;;;4.40;99.90;;;;;;4966817;28;20061;-78
2022/01/19 06:17:25;;;;;;;153.27;43.67;;;4.30;99.90;;;;;;4961289;28;20514;-78
2022/01/19 06:19:51;;;;;;;154.48;44.63;;;4.30;99.90;;;;;;4977291;28;20046;-78
2022/01/19 06:22:17;;;;;;;158.27;43.45;;;4.30;99.90;;;;;;4977381;28;20054;-78
2022/01/19 06:24:43;;;;;;;146.45;43.38;;;4.30;99.90;;;;;;4956599;28;20049;-77
2022/01/19 06:27:10;;;;;;;149.18;45.15;;;4.30;99.90;;;;;;4996773;28;20491;-78
2022/01/19 06:29:35;;;;;;;142.93;43.63;;;4.30;99.90;;;;;;4963671;28;20042;-78
2022/01/19 06:32:01;;;;;;;143.82;43.88;;;4.30;99.90;;;;;;4996120;28;20084;-78
2022/01/19 06:34:27;;;;;;;142.48;43.67;;;4.30;99.90;;;;;;4996358;28;20042;-77
2022/01/19 06:36:53;;;;;;;143.80;44.47;;;4.30;99.90;;;;;;4996103;28;20104;-78
2022/01/19 06:39:20;;;;;;;141.85;43.20;;;4.30;99.90;;;;;;4996408;28;20049;-78
2022/01/19 06:41:46;;;;;;;147.10;45.80;;;4.30;99.90;;;;;;4964066;28;20076;-78
2022/01/19 06:44:13;;;;;;;157.45;46.20;;;4.30;99.90;;;;;;4980601;28;20042;-78
2022/01/19 06:46:41;;;;;;;150.50;44.53;;;4.40;99.90;;;;;;4996026;28;20053;-78
2022/01/19 06:49:07;;;;;;;150.40;47.38;;;4.30;99.90;;;;;;4994699;28;20129;-81
2022/01/19 06:51:32;;;;;;;144.85;47.50;;;4.30;99.90;;;;;;4980182;28;20096;-77
2022/01/19 06:53:58;;;;;;;140.13;44.35;;;4.40;99.90;;;;;;4963653;28;20042;-78
2022/01/19 06:56:24;;;;;;;145.13;46.08;;;4.40;99.90;;;;;;4994466;28;20049;-78
2022/01/19 06:58:50;;;;;;;154.35;44.63;;;4.30;99.90;;;;;;4981275;28;20542;-80
2022/01/19 07:01:16;;;;;;;145.40;45.60;;;4.20;99.90;;;;;;4961033;28;20073;-77
2022/01/19 07:03:41;;;;;;;139.93;45.97;;;4.30;99.90;;;;;;5004881;28;20054;-78
2022/01/19 07:06:11;;;;;;;144.48;46.63;;;4.30;99.90;;;;;;4991921;28;20049;-78
2022/01/19 07:08:40;;;;;;;138.38;47.13;;;4.30;99.90;;;;;;4995779;28;20498;-79
2022/01/19 07:11:06;;;;;;;140.82;46.63;;;4.30;99.90;;;;;;4992511;28;20058;-77
2022/01/19 07:13:31;;;;;;;135.65;43.95;;;4.30;99.90;;;;;;4991188;28;20046;-78
2022/01/19 07:15:57;;;;;;;143.80;47.75;;;4.30;99.90;;;;;;4979119;28;20068;-78
2022/01/19 07:18:23;;;;;;;142.10;46.95;;;4.30;99.90;;;;;;4979827;28;20069;-77
2022/01/19 07:20:49;;;;;;;150.10;46.83;;;4.30;99.90;;;;;;4963956;28;20380;-78
2022/01/19 07:23:14;;;;;;;130.27;46.20;;;4.30;99.90;;;;;;4979478;28;20058;-78
2022/01/19 07:25:40;;;;;;;125.40;44.17;;;4.30;99.90;;;;;;4980167;28;20050;-77
2022/01/19 07:28:08;;;;;;;142.82;45.83;;;4.30;99.90;;;;;;4963044;28;20427;-77
2022/01/19 07:30:35;;;;;;;141.05;48.25;;;4.30;99.90;;;;;;4947603;28;20407;-79
2022/01/19 07:33:01;;;;;;;128.18;45.63;;;4.30;99.90;;;;;;4962749;28;20045;-77
2022/01/19 07:35:27;;;;;;;134.05;45.47;;;4.30;99.90;;;;;;4998893;28;20061;-80
2022/01/19 07:37:52;;;;;;;120.07;44.63;;;4.30;99.90;;;;;;4998256;28;20403;-83
2022/01/19 07:40:18;;;;;;;121.57;44.63;;;4.30;99.90;;;;;;4982827;28;20041;-78
2022/01/19 07:42:44;;;;;;;135.00;45.53;;;4.30;99.90;;;;;;4982759;28;20050;-79
2022/01/19 07:45:10;;;;;;;139.43;47.75;;;4.30;99.90;;;;;;4966270;28;20048;-78
2022/01/19 07:47:36;;;;;;;122.70;44.38;;;4.30;99.90;;;;;;4981753;28;20123;-79
2022/01/19 07:50:03;;;;;;;120.07;44.35;;;4.30;99.90;;;;;;4997848;28;20050;-81
2022/01/19 07:52:28;;;;;;;115.15;44.80;;;4.30;99.90;;;;;;5015329;28;20052;-78
2022/01/19 07:54:54;;;;;;;130.70;45.58;;;4.40;99.90;;;;;;4969536;28;20137;-79
2022/01/19 07:57:20;;;;;;;118.78;44.75;;;4.40;99.90;;;;;;4978060;28;20438;-77
2022/01/19 07:59:46;;;;;;;113.63;44.50;;;4.40;99.90;;;;;;4996079;28;20074;-78
2022/01/19 08:02:12;;;;;;;117.68;45.55;;;4.40;99.90;;;;;;4989788;28;20449;-83
2022/01/19 08:04:38;;;;;;;119.63;45.85;;;4.40;99.90;;;;;;4982177;28;20045;-79
2022/01/19 08:07:04;;;;;;;110.88;42.65;;;4.40;99.90;;;;;;4982757;28;20050;-80
2022/01/19 08:09:33;;;;;;;110.38;43.90;;;4.50;99.90;;;;;;4998753;28;20053;-80
2022/01/19 08:11:59;;;;;;;110.65;44.72;;;4.50;99.90;;;;;;4983326;28;20506;-80
2022/01/19 08:14:25;;;;;;;111.13;44.08;;;4.50;99.90;;;;;;4966568;28;20093;-79
2022/01/19 08:16:52;;;;;;;113.30;43.50;;;4.50;99.90;;;;;;4998698;28;20054;-80
2022/01/19 08:19:17;;;;;;;121.32;44.63;;;4.60;99.90;;;;;;4978419;28;20053;-80
2022/01/19 08:21:43;;;;;;;103.55;42.17;;;4.60;99.90;;;;;;4978920;28;20054;-82
2022/01/19 08:24:09;;;;;;;108.32;43.92;;;4.60;99.90;;;;;;5014225;28;20046;-79
2022/01/19 08:26:35;;;;;;;109.15;44.03;;;4.60;99.90;;;;;;4998352;28;20050;-79
2022/01/19 08:29:01;;;;;;;110.18;44.15;;;4.70;99.90;;;;;;4998366;28;20046;-82
2022/01/19 08:31:27;;;;;;;108.53;44.15;;;4.60;99.90;;;;;;4962990;28;20050;-79
2022/01/19 08:33:52;;;;;;;96.15;41.90;;;4.70;99.90;;;;;;4958270;28;20061;-80
2022/01/19 08:36:21;;;;;;;118.05;44.80;;;4.70;99.90;;;;;;4982893;28;20042;-77
2022/01/19 08:38:47;;;;;;;105.50;41.95;;;4.80;99.90;;;;;;4998393;28;20557;-77
2022/01/19 08:41:13;;;;;;;108.47;42.85;;;4.70;99.90;;;;;;4981713;28;20045;-79
2022/01/19 08:43:38;;;;;;;102.32;42.55;;;4.70;99.90;;;;;;4982287;28;20050;-79
2022/01/19 08:46:04;;;;;;;95.13;42.25;;;4.70;99.90;;;;;;4981745;28;20042;-81
2022/01/19 08:48:30;;;;;;;94.00;41.55;;;4.70;99.90;;;;;;4981590;28;20037;-79
2022/01/19 08:50:55;;;;;;;92.75;40.53;;;4.80;99.90;;;;;;4998011;28;20053;-84
2022/01/19 08:53:22;;;;;;;88.45;41.20;;;4.80;99.90;;;;;;4982033;28;20045;-80
2022/01/19 08:55:49;;;;;;;91.50;40.53;;;4.90;99.90;;;;;;4998286;28;20045;-80
2022/01/19 08:58:16;;;;;;;83.70;41.35;;;4.80;99.90;;;;;;4981312;28;20050;-80
2022/01/19 09:00:44;;;;;;;87.20;41.45;;;4.90;99.90;;;;;;4982058;28;20062;-79
2022/01/19 09:03:10;;;;;;;89.57;40.65;;;4.80;99.90;;;;;;4997926;28;20041;-79
2022/01/19 09:05:37;;;;;;;86.85;40.50;;;4.80;99.90;;;;;;4981888;28;20050;-77
2022/01/19 09:08:03;;;;;;;88.55;40.25;;;4.90;99.90;;;;;;4981655;28;20133;-79
2022/01/19 09:10:29;;;;;;;84.68;40.70;;;4.80;99.90;;;;;;4981501;28;20046;-79
2022/01/19 09:12:55;;;;;;;91.25;41.63;;;4.90;99.90;;;;;;4962466;28;20054;-78
2022/01/19 09:15:22;;;;;;;83.85;40.50;;;4.90;99.90;;;;;;4977883;28;20105;-77
2022/01/19 09:17:49;;;;;;;83.47;38.45;;;5.00;99.90;;;;;;4962523;28;20483;-80
2022/01/19 09:20:16;;;;;;;78.45;39.38;;;5.10;99.90;;;;;;4983441;28;20061;-79
2022/01/19 09:22:41;;;;;;;84.25;40.20;;;4.90;99.90;;;;;;4961639;28;20058;-79
2022/01/19 09:25:09;;;;;;;70.97;39.88;;;5.10;99.90;;;;;;4962257;28;20046;-79
2022/01/19 09:27:38;;;;;;;80.97;40.47;;;5.20;99.90;;;;;;4981596;28;20162;-79
2022/01/19 09:30:06;;;;;;;79.25;40.20;;;5.20;99.90;;;;;;4997172;28;20521;-79
2022/01/19 09:32:32;;;;;;;83.18;40.08;;;5.20;99.90;;;;;;4997306;28;20390;-78
2022/01/19 09:35:06;;;;;;;73.57;39.47;;;5.20;99.90;;;;;;4981346;28;20048;-78
2022/01/19 09:37:33;;;;;;;75.55;38.25;;;5.30;99.90;;;;;;4982834;28;20103;-78
2022/01/19 09:39:59;;;;;;;80.78;39.67;;;5.30;99.90;;;;;;4997338;28;20384;-79
2022/01/19 09:42:24;;;;;;;77.13;38.42;;;5.30;99.90;;;;;;4980467;28;20057;-80
2022/01/19 09:44:52;;;;;;;72.97;37.67;;;5.30;99.90;;;;;;4976891;28;20046;-77
2022/01/19 09:47:18;;;;;;;73.45;38.00;;;5.30;99.90;;;;;;4946350;28;20050;-79
2022/01/19 09:49:44;;;;;;;78.88;40.17;;;5.30;99.90;;;;;;4945651;28;20038;-80
2022/01/19 09:52:10;;;;;;;77.03;39.50;;;5.40;99.90;;;;;;4977389;28;20046;-80
2022/01/19 09:54:36;;;;;;;78.07;39.67;;;5.40;99.90;;;;;;4970067;28;20120;-79
2022/01/19 09:57:02;;;;;;;70.60;39.25;;;5.40;99.90;;;;;;4980329;28;20395;-83
2022/01/19 09:59:28;;;;;;;74.10;37.65;;;5.50;99.90;;;;;;4979568;28;20137;-79
2022/01/19 10:02:01;;;;;;;72.18;39.40;;;5.60;99.90;;;;;;4977196;28;20535;-80
2022/01/19 10:04:29;;;;;;;78.65;39.95;;;5.60;99.90;;;;;;4995341;28;20494;-79
2022/01/19 10:07:15;;;;;;;76.32;38.45;;;5.60;99.90;;;;;;4993186;28;20073;-77
2022/01/19 10:09:58;;;;;;;67.38;37.15;;;5.70;99.90;;;;;;4972406;28;20046;-81
2022/01/19 10:18:09;;;;;;;81.35;38.28;;;5.70;99.90;;;;;;4975998;28;20078;-80
2022/01/19 10:20:35;;;;;;;72.10;36.80;;;5.70;99.90;;;;;;4975823;28;20125;-81
2022/01/19 10:23:00;;;;;;;75.18;36.25;;;5.70;99.90;;;;;;4979965;28;20124;-80
2022/01/19 10:25:47;;;;;;;70.03;37.72;;;5.70;99.90;;;;;;4979801;28;20487;-81
2022/01/19 10:28:13;;;;;;;;;;;5.70;99.90;;;;;;4980505;28;20475;-80
2022/01/19 10:30:38;;;;;;;73.67;36.80;;;5.70;99.90;;;;;;4995983;28;19983;-80
2022/01/19 10:33:04;;;;;;;74.35;38.45;;;5.70;99.90;;;;;;4996030;28;20081;-81
2022/01/19 10:35:33;;;;;;;76.13;38.28;;;5.70;99.90;;;;;;4996144;28;20045;-80
2022/01/19 10:38:16;;;;;;;74.78;39.28;;;5.80;99.90;;;;;;4979988;28;20053;-80
2022/01/19 10:41:04;;;;;;;74.57;37.47;;;5.90;99.90;;;;;;4979261;28;20077;-81
2022/01/19 10:43:30;;;;;;;71.13;35.67;;;5.90;99.90;;;;;;4995620;28;20103;-81
2022/01/19 10:45:57;;;;;;;71.43;36.08;;;5.90;99.90;;;;;;4995460;28;20125;-81
2022/01/19 10:48:35;;;;;;;67.70;36.38;;;6.10;99.90;;;;;;4995211;28;20050;-81
2022/01/19 10:51:13;;;;;;;62.00;32.47;;;6.10;99.90;;;;;;4995126;28;20425;-80
2022/01/19 10:53:42;;;;;;;52.97;29.00;;;6.20;99.90;;;;;;4996036;28;20046;-81
2022/01/19 10:56:27;;;;;;;48.65;26.17;;;6.30;99.90;;;;;;4978956;28;20065;-84
2022/01/19 10:59:05;;;;;;;40.22;22.15;;;6.50;99.90;;;;;;4994318;28;20061;-80
2022/01/19 11:01:37;;;;;;;33.35;13.80;;;6.60;99.90;;;;;;4990663;28;20104;-78
2022/01/19 11:04:27;;;;;;;29.73;13.38;;;6.70;99.90;;;;;;4992705;28;20050;-77
2022/01/19 11:07:16;;;;;;;21.88;10.57;;;6.80;99.90;;;;;;5012310;28;20037;-78
2022/01/19 11:09:56;;;;;;;26.30;9.75;;;6.80;99.90;;;;;;4990273;28;20045;-78
2022/01/19 11:12:25;;;;;;;24.63;9.55;;;6.80;99.90;;;;;;4979319;28;20096;-81
2022/01/19 11:14:51;;;;;;;21.88;9.13;;;6.70;99.90;;;;;;4963707;28;20072;-80
2022/01/19 11:17:17;;;;;;;26.13;9.00;;;6.70;99.90;;;;;;4979432;28;20050;-79
2022/01/19 11:19:43;;;;;;;21.27;8.30;;;6.70;99.90;;;;;;4995422;28;20061;-79
2022/01/19 11:22:18;;;;;;;25.20;9.15;;;6.60;99.90;;;;;;4995690;28;20417;-79
2022/01/19 11:25:02;;;;;;;22.95;7.65;;;6.60;99.90;;;;;;4995494;28;20050;-78
2022/01/19 11:27:40;;;;;;;21.90;7.88;;;6.60;99.90;;;;;;4978608;28;20125;-79
2022/01/19 11:30:19;;;;;;;27.90;7.93;;;6.50;99.90;;;;;;4994505;28;20053;-78
2022/01/19 11:33:16;;;;;;;29.00;9.20;;;6.50;99.90;;;;;;4995371;28;20046;-78
2022/01/19 11:35:45;;;;;;;23.15;8.45;;;6.50;99.90;;;;;;4978976;28;20046;-78
2022/01/19 11:38:35;;;;;;;26.90;8.70;;;6.50;99.90;;;;;;4993136;28;20123;-78
2022/01/19 11:41:08;;;;;;;23.23;8.25;;;6.50;99.90;;;;;;4994607;28;20081;-78
2022/01/19 11:43:39;;;;;;;23.73;8.30;;;6.50;99.90;;;;;;4994828;28;20068;-79
2022/01/19 11:46:24;;;;;;;24.02;8.85;;;6.50;99.90;;;;;;4995243;28;20050;-79
2022/01/19 11:48:51;;;;;;;26.38;8.93;;;6.50;99.90;;;;;;4995639;28;20042;-80
2022/01/19 11:51:28;;;;;;;24.63;8.60;;;6.50;99.90;;;;;;4995258;28;20391;-79
2022/01/19 11:54:15;;;;;;;24.33;8.45;;;6.50;99.90;;;;;;4979700;28;20054;-79
2022/01/19 11:57:00;;;;;;;28.58;9.50;;;6.50;99.90;;;;;;4979240;28;20054;-79
2022/01/19 11:59:29;;;;;;;23.10;8.68;;;6.50;99.90;;;;;;4978684;28;20176;-78
2022/01/19 12:02:20;;;;;;;25.42;8.52;;;6.40;99.90;;;;;;5011752;28;20054;-78
2022/01/19 12:05:12;;;;;;;22.98;7.70;;;6.40;99.90;;;;;;5011892;28;20081;-80
2022/01/19 12:07:41;;;;;;;26.83;8.48;;;6.50;99.90;;;;;;4991935;28;20104;-78
2022/01/19 12:10:19;;;;;;;26.13;7.97;;;6.50;99.90;;;;;;4995400;28;20042;-78
2022/01/19 12:13:09;;;;;;;21.83;8.43;;;6.70;99.90;;;;;;4982557;28;20481;-78
2022/01/19 12:16:03;;;;;;;22.55;8.00;;;6.80;99.90;;;;;;4997180;28;20076;-78
2022/01/19 12:18:50;;;;;;;21.33;7.40;;;6.90;99.90;;;;;;4987201;28;20056;-78
2022/01/19 12:21:35;;;;;;;;;;;6.90;99.90;;;;;;4997634;28;20050;-78
2022/01/19 12:24:26;;;;;;;30.33;8.35;;;6.90;99.90;;;;;;4989788;28;19922;-78
2022/01/19 12:27:10;;;;;;;22.20;7.43;;;7.00;99.90;;;;;;4995282;28;20053;-78
2022/01/19 12:29:38;;;;;;;32.17;8.70;;;7.00;99.90;;;;;;4972681;28;20120;-78
2022/01/19 12:32:19;;;;;;;24.15;7.18;;;6.90;99.90;;;;;;4998503;28;20050;-78
2022/01/19 12:34:52;;;;;;;28.63;8.02;;;7.00;99.90;;;;;;4981832;28;20502;-79
2022/01/19 12:37:27;;;;;;;24.08;6.57;;;7.00;99.90;;;;;;4997603;28;20042;-95
2022/01/19 12:39:56;;;;;;;25.17;7.97;;;7.00;99.90;;;;;;4997766;28;20046;-79
2022/01/19 12:42:28;;;;;;;24.50;7.28;;;7.00;99.90;;;;;;4997686;28;20052;-79
2022/01/19 12:44:56;;;;;;;23.60;7.10;;;7.00;99.90;;;;;;4968217;28;20390;-78
2022/01/19 12:47:25;;;;;;;24.23;7.65;;;7.00;99.90;;;;;;4998284;28;20525;-79
2022/01/19 12:50:16;;;;;;;27.35;8.45;;;6.90;99.90;;;;;;4997491;28;20033;-82
2022/01/19 12:52:48;;;;;;;33.83;7.95;;;7.00;99.90;;;;;;4978905;28;20046;-78
2022/01/19 12:55:29;;;;;;;21.52;7.25;;;6.90;99.90;;;;;;4981367;28;20054;-77
2022/01/19 12:57:57;;;;;;;29.50;8.30;;;6.90;99.90;;;;;;5015639;28;20046;-78
2022/01/19 13:00:29;;;;;;;26.42;8.10;;;6.90;99.90;;;;;;4981821;28;20049;-78
2022/01/19 13:02:55;;;;;;;38.33;8.68;;;6.80;99.90;;;;;;4998471;28;20387;-77
2022/01/19 13:05:21;;;;;;;25.55;8.38;;;6.80;99.90;;;;;;4998242;28;20049;-78
2022/01/19 13:07:53;;;;;;;32.10;8.40;;;6.80;99.90;;;;;;4998240;28;20054;-77
2022/01/19 13:10:34;;;;;;;25.90;8.35;;;6.80;99.90;;;;;;4997932;28;20483;-79
2022/01/19 13:13:44;;;;;;;26.27;7.43;;;6.80;99.90;;;;;;4981758;28;20061;-78
2022/01/19 13:15:55;;;;;;;27.98;8.30;;;6.80;99.90;;;;;;4992125;28;20140;-77
2022/01/19 13:18:42;;;;;;;34.78;8.00;;;6.70;99.90;;;;;;4981138;28;20049;-76
2022/01/19 13:21:16;;;;;;;27.35;8.10;;;6.70;99.90;;;;;;4981609;28;20052;-77
2022/01/19 13:24:08;;;;;;;28.55;9.85;;;6.70;99.90;;;;;;4997263;28;20050;-78
2022/01/19 13:26:44;;;;;;;35.28;9.27;;;6.70;99.90;;;;;;4981519;28;20049;-78
2022/01/19 13:29:25;;;;;;;32.90;10.45;;;6.60;99.90;;;;;;4982511;28;20042;-79
2022/01/19 13:31:56;;;;;;;37.03;9.50;;;6.60;99.90;;;;;;5015622;28;20666;-80
2022/01/19 13:34:22;;;;;;;32.40;10.00;;;6.60;99.90;;;;;;5017447;28;20104;-79
2022/01/19 13:36:54;;;;;;;36.65;9.70;;;6.60;99.90;;;;;;5017074;28;20052;-78
2022/01/19 13:39:22;;;;;;;40.85;11.65;;;6.60;99.90;;;;;;5017437;28;20505;-78
2022/01/19 13:41:51;;;;;;;40.35;10.75;;;6.60;99.90;;;;;;4977246;28;20042;-78
2022/01/19 13:44:32;;;;;;;36.10;10.50;;;6.60;99.90;;;;;;4992497;28;20581;-80
2022/01/19 13:47:12;;;;;;;41.97;11.23;;;6.60;99.90;;;;;;4969709;28;20050;-81
2022/01/19 13:49:39;;;;;;;37.53;10.88;;;6.50;99.90;;;;;;4976754;28;20096;-81
2022/01/19 13:52:06;;;;;;;38.97;11.10;;;6.60;99.90;;;;;;4989674;28;20109;-81
2022/01/19 13:54:39;;;;;;;32.72;10.95;;;6.50;99.90;;;;;;4993211;28;20046;-81
2022/01/19 13:57:06;;;;;;;36.53;11.73;;;6.50;99.90;;;;;;4977323;28;20193;-79
2022/01/19 13:59:31;;;;;;;40.50;13.25;;;6.60;99.90;;;;;;4961314;28;20046;-80
2022/01/19 14:02:00;;;;;;;35.05;12.30;;;6.50;99.90;;;;;;4929063;28;20112;-80
2022/01/19 14:04:31;;;;;;;49.88;14.02;;;6.50;99.90;;;;;;4960724;28;20049;-81
2022/01/19 14:07:06;;;;;;;35.65;11.85;;;6.60;99.90;;;;;;4996176;28;20092;-82
2022/01/19 14:09:34;;;;;;;42.80;13.30;;;6.60;99.90;;;;;;4979467;28;20046;-80